sensor_id;sensor_type;location;lat;lon;timestamp;P1;durP1;ratioP1;P2;durP2;ratioP2
9188;SDS011;34313;50.780;6.084;2023-07-20T00:00:25;6.47;;;3.93;;
9188;SDS011;34313;50.780;6.084;2023-07-20T00:02:50;8.53;;;4.60;;
9188;SDS011;34313;50.780;6.084;2023-07-20T00:05:16;10.00;;;4.20;;
9188;SDS011;34313;50.780;6.084;2023-07-20T00:07:46;5.67;;;4.07;;
9188;SDS011;34313;50.780;6.084;2023-07-20T00:10:12;6.97;;;3.70;;
9188;SDS011;34313;50.780;6.084;2023-07-20T00:12:37;7.67;;;3.90;;
9188;SDS011;34313;50.780;6.084;2023-07-20T00:15:02;4.43;;;3.70;;
9188;SDS011;34313;50.780;6.084;2023-07-20T00:17:28;6.80;;;3.97;;
9188;SDS011;34313;50.780;6.084;2023-07-20T00:19:53;5.77;;;4.53;;
9188;SDS011;34313;50.780;6.084;2023-07-20T00:22:19;6.80;;;4.50;;
9188;SDS011;34313;50.780;6.084;2023-07-20T00:24:44;8.90;;;4.90;;
9188;SDS011;34313;50.780;6.084;2023-07-20T00:27:09;12.23;;;4.80;;
9188;SDS011;34313;50.780;6.084;2023-07-20T00:29:34;6.10;;;4.50;;
9188;SDS011;34313;50.780;6.084;2023-07-20T00:32:00;6.33;;;4.30;;
9188;SDS011;34313;50.780;6.084;2023-07-20T00:34:25;6.50;;;4.60;;
9188;SDS011;34313;50.780;6.084;2023-07-20T00:36:51;6.60;;;4.23;;
9188;SDS011;34313;50.780;6.084;2023-07-20T00:39:16;6.20;;;4.30;;
9188;SDS011;34313;50.780;6.084;2023-07-20T00:41:42;8.50;;;4.80;;
9188;SDS011;34313;50.780;6.084;2023-07-20T00:44:07;7.77;;;4.83;;
9188;SDS011;34313;50.780;6.084;2023-07-20T00:46:32;8.03;;;4.50;;
9188;SDS011;34313;50.780;6.084;2023-07-20T00:48:58;5.63;;;3.73;;
9188;SDS011;34313;50.780;6.084;2023-07-20T00:51:23;7.70;;;5.10;;
9188;SDS011;34313;50.780;6.084;2023-07-20T00:53:50;5.67;;;4.00;;
9188;SDS011;34313;50.780;6.084;2023-07-20T00:56:16;7.60;;;4.60;;
9188;SDS011;34313;50.780;6.084;2023-07-20T00:58:41;9.23;;;4.97;;
9188;SDS011;34313;50.780;6.084;2023-07-20T01:01:07;5.20;;;4.20;;
9188;SDS011;34313;50.780;6.084;2023-07-20T01:03:32;8.20;;;4.87;;
9188;SDS011;34313;50.780;6.084;2023-07-20T01:11:38;7.90;;;3.60;;
9188;SDS011;34313;50.780;6.084;2023-07-20T01:14:08;11.47;;;5.40;;
9188;SDS011;34313;50.780;6.084;2023-07-20T01:16:34;7.20;;;4.30;;
9188;SDS011;34313;50.780;6.084;2023-07-20T01:18:59;7.80;;;4.50;;
9188;SDS011;34313;50.780;6.084;2023-07-20T01:21:26;7.40;;;4.50;;
9188;SDS011;34313;50.780;6.084;2023-07-20T01:32:20;9.43;;;4.30;;
9188;SDS011;34313;50.780;6.084;2023-07-20T01:34:49;5.40;;;3.57;;
9188;SDS011;34313;50.780;6.084;2023-07-20T01:37:17;9.47;;;3.83;;
9188;SDS011;34313;50.780;6.084;2023-07-20T01:39:45;8.80;;;4.83;;
9188;SDS011;34313;50.780;6.084;2023-07-20T01:42:10;5.30;;;4.10;;
9188;SDS011;34313;50.780;6.084;2023-07-20T01:44:37;7.90;;;5.07;;
9188;SDS011;34313;50.780;6.084;2023-07-20T01:47:02;7.67;;;4.20;;
9188;SDS011;34313;50.780;6.084;2023-07-20T01:49:29;7.97;;;4.27;;
9188;SDS011;34313;50.780;6.084;2023-07-20T01:51:54;8.10;;;4.17;;
9188;SDS011;34313;50.780;6.084;2023-07-20T01:54:19;11.00;;;4.40;;
9188;SDS011;34313;50.780;6.084;2023-07-20T01:56:46;7.13;;;4.00;;
9188;SDS011;34313;50.780;6.084;2023-07-20T01:59:11;6.03;;;4.40;;
9188;SDS011;34313;50.780;6.084;2023-07-20T02:01:37;7.50;;;4.57;;
9188;SDS011;34313;50.780;6.084;2023-07-20T02:04:02;8.67;;;3.93;;
9188;SDS011;34313;50.780;6.084;2023-07-20T02:06:27;6.03;;;3.97;;
9188;SDS011;34313;50.780;6.084;2023-07-20T02:08:52;20.30;;;4.33;;
9188;SDS011;34313;50.780;6.084;2023-07-20T02:11:18;6.87;;;3.80;;
9188;SDS011;34313;50.780;6.084;2023-07-20T02:13:43;6.63;;;4.40;;
9188;SDS011;34313;50.780;6.084;2023-07-20T02:16:08;8.03;;;4.17;;
9188;SDS011;34313;50.780;6.084;2023-07-20T02:18:34;10.87;;;5.10;;
9188;SDS011;34313;50.780;6.084;2023-07-20T02:21:01;6.77;;;4.03;;
9188;SDS011;34313;50.780;6.084;2023-07-20T02:23:26;7.33;;;3.83;;
9188;SDS011;34313;50.780;6.084;2023-07-20T02:25:51;4.00;;;3.20;;
9188;SDS011;34313;50.780;6.084;2023-07-20T02:28:17;7.73;;;3.77;;
9188;SDS011;34313;50.780;6.084;2023-07-20T02:30:42;6.67;;;3.90;;
9188;SDS011;34313;50.780;6.084;2023-07-20T02:33:08;11.30;;;3.73;;
9188;SDS011;34313;50.780;6.084;2023-07-20T02:35:33;5.43;;;3.27;;
9188;SDS011;34313;50.780;6.084;2023-07-20T02:37:58;7.70;;;3.50;;
9188;SDS011;34313;50.780;6.084;2023-07-20T02:40:24;7.40;;;3.73;;
9188;SDS011;34313;50.780;6.084;2023-07-20T02:42:49;8.37;;;3.90;;
9188;SDS011;34313;50.780;6.084;2023-07-20T02:45:14;6.50;;;3.20;;
9188;SDS011;34313;50.780;6.084;2023-07-20T02:47:41;8.53;;;3.43;;
9188;SDS011;34313;50.780;6.084;2023-07-20T02:50:07;6.03;;;3.73;;
9188;SDS011;34313;50.780;6.084;2023-07-20T02:52:33;9.57;;;3.77;;
9188;SDS011;34313;50.780;6.084;2023-07-20T02:54:58;6.60;;;3.20;;
9188;SDS011;34313;50.780;6.084;2023-07-20T02:57:23;8.77;;;3.50;;
9188;SDS011;34313;50.780;6.084;2023-07-20T02:59:49;4.93;;;3.27;;
9188;SDS011;34313;50.780;6.084;2023-07-20T03:02:14;8.57;;;3.40;;
9188;SDS011;34313;50.780;6.084;2023-07-20T03:04:40;9.47;;;3.80;;
9188;SDS011;34313;50.780;6.084;2023-07-20T03:07:05;6.87;;;4.00;;
9188;SDS011;34313;50.780;6.084;2023-07-20T03:09:32;5.17;;;3.50;;
9188;SDS011;34313;50.780;6.084;2023-07-20T03:11:57;5.87;;;3.20;;
9188;SDS011;34313;50.780;6.084;2023-07-20T03:14:22;6.63;;;3.40;;
9188;SDS011;34313;50.780;6.084;2023-07-20T03:16:48;10.57;;;4.00;;
9188;SDS011;34313;50.780;6.084;2023-07-20T03:19:14;6.93;;;4.00;;
9188;SDS011;34313;50.780;6.084;2023-07-20T03:21:39;6.60;;;4.10;;
9188;SDS011;34313;50.780;6.084;2023-07-20T03:24:06;6.63;;;3.83;;
9188;SDS011;34313;50.780;6.084;2023-07-20T03:26:33;6.40;;;3.30;;
9188;SDS011;34313;50.780;6.084;2023-07-20T03:28:58;5.43;;;3.40;;
9188;SDS011;34313;50.780;6.084;2023-07-20T03:31:23;6.87;;;3.60;;
9188;SDS011;34313;50.780;6.084;2023-07-20T03:33:48;6.30;;;3.97;;
9188;SDS011;34313;50.780;6.084;2023-07-20T03:36:14;4.47;;;3.50;;
9188;SDS011;34313;50.780;6.084;2023-07-20T03:38:39;8.30;;;4.20;;
9188;SDS011;34313;50.780;6.084;2023-07-20T03:41:04;8.40;;;4.13;;
9188;SDS011;34313;50.780;6.084;2023-07-20T03:43:29;6.83;;;4.13;;
9188;SDS011;34313;50.780;6.084;2023-07-20T03:45:55;7.07;;;5.23;;
9188;SDS011;34313;50.780;6.084;2023-07-20T03:48:22;5.97;;;4.30;;
9188;SDS011;34313;50.780;6.084;2023-07-20T03:50:49;8.40;;;4.73;;
9188;SDS011;34313;50.780;6.084;2023-07-20T03:53:16;8.17;;;4.43;;
9188;SDS011;34313;50.780;6.084;2023-07-20T03:55:44;8.00;;;4.30;;
9188;SDS011;34313;50.780;6.084;2023-07-20T03:58:11;10.83;;;4.77;;
9188;SDS011;34313;50.780;6.084;2023-07-20T04:00:36;6.93;;;4.63;;
9188;SDS011;34313;50.780;6.084;2023-07-20T04:03:01;11.07;;;4.93;;
9188;SDS011;34313;50.780;6.084;2023-07-20T04:05:27;6.50;;;4.47;;
9188;SDS011;34313;50.780;6.084;2023-07-20T04:07:52;8.13;;;5.20;;
9188;SDS011;34313;50.780;6.084;2023-07-20T04:10:18;12.13;;;4.60;;
9188;SDS011;34313;50.780;6.084;2023-07-20T04:12:44;6.47;;;4.53;;
9188;SDS011;34313;50.780;6.084;2023-07-20T04:15:09;9.97;;;4.40;;
9188;SDS011;34313;50.780;6.084;2023-07-20T04:17:35;6.77;;;4.47;;
9188;SDS011;34313;50.780;6.084;2023-07-20T04:20:00;7.33;;;4.70;;
9188;SDS011;34313;50.780;6.084;2023-07-20T04:22:26;9.93;;;5.80;;
9188;SDS011;34313;50.780;6.084;2023-07-20T04:24:52;7.77;;;4.90;;
9188;SDS011;34313;50.780;6.084;2023-07-20T04:27:17;8.33;;;4.77;;
9188;SDS011;34313;50.780;6.084;2023-07-20T04:29:43;13.33;;;5.70;;
9188;SDS011;34313;50.780;6.084;2023-07-20T04:32:08;10.30;;;5.60;;
9188;SDS011;34313;50.780;6.084;2023-07-20T04:34:34;9.90;;;6.40;;
9188;SDS011;34313;50.780;6.084;2023-07-20T04:37:02;16.67;;;5.67;;
9188;SDS011;34313;50.780;6.084;2023-07-20T04:39:28;9.67;;;5.90;;
9188;SDS011;34313;50.780;6.084;2023-07-20T04:41:53;11.47;;;5.77;;
9188;SDS011;34313;50.780;6.084;2023-07-20T04:44:19;11.07;;;5.20;;
9188;SDS011;34313;50.780;6.084;2023-07-20T04:46:44;10.67;;;6.00;;
9188;SDS011;34313;50.780;6.084;2023-07-20T04:49:09;11.77;;;4.73;;
9188;SDS011;34313;50.780;6.084;2023-07-20T04:51:37;13.03;;;6.07;;
9188;SDS011;34313;50.780;6.084;2023-07-20T04:54:03;11.07;;;6.47;;
9188;SDS011;34313;50.780;6.084;2023-07-20T04:56:28;7.70;;;5.60;;
9188;SDS011;34313;50.780;6.084;2023-07-20T04:58:54;8.70;;;6.03;;
9188;SDS011;34313;50.780;6.084;2023-07-20T05:01:19;14.97;;;6.67;;
9188;SDS011;34313;50.780;6.084;2023-07-20T05:03:45;11.43;;;5.33;;
9188;SDS011;34313;50.780;6.084;2023-07-20T05:06:10;9.37;;;6.00;;
9188;SDS011;34313;50.780;6.084;2023-07-20T05:08:36;12.90;;;6.97;;
9188;SDS011;34313;50.780;6.084;2023-07-20T05:11:01;10.87;;;6.47;;
9188;SDS011;34313;50.780;6.084;2023-07-20T05:13:26;19.63;;;7.53;;
9188;SDS011;34313;50.780;6.084;2023-07-20T05:15:52;11.57;;;5.80;;
9188;SDS011;34313;50.780;6.084;2023-07-20T05:18:18;15.77;;;6.80;;
9188;SDS011;34313;50.780;6.084;2023-07-20T05:20:46;14.33;;;6.00;;
9188;SDS011;34313;50.780;6.084;2023-07-20T05:23:12;8.53;;;4.63;;
9188;SDS011;34313;50.780;6.084;2023-07-20T05:25:37;7.97;;;5.00;;
9188;SDS011;34313;50.780;6.084;2023-07-20T05:28:03;14.33;;;4.90;;
9188;SDS011;34313;50.780;6.084;2023-07-20T05:30:28;8.70;;;4.60;;
9188;SDS011;34313;50.780;6.084;2023-07-20T05:32:54;11.57;;;5.10;;
9188;SDS011;34313;50.780;6.084;2023-07-20T05:35:19;7.03;;;4.03;;
9188;SDS011;34313;50.780;6.084;2023-07-20T05:37:45;12.17;;;4.13;;
9188;SDS011;34313;50.780;6.084;2023-07-20T05:40:11;8.87;;;3.97;;
9188;SDS011;34313;50.780;6.084;2023-07-20T05:42:37;7.80;;;3.80;;
9188;SDS011;34313;50.780;6.084;2023-07-20T05:45:03;6.13;;;3.80;;
9188;SDS011;34313;50.780;6.084;2023-07-20T05:47:28;5.60;;;3.60;;
9188;SDS011;34313;50.780;6.084;2023-07-20T05:49:54;7.40;;;4.07;;
9188;SDS011;34313;50.780;6.084;2023-07-20T05:52:19;9.37;;;5.10;;
9188;SDS011;34313;50.780;6.084;2023-07-20T05:54:44;10.70;;;4.43;;
9188;SDS011;34313;50.780;6.084;2023-07-20T05:57:10;7.13;;;4.80;;
9188;SDS011;34313;50.780;6.084;2023-07-20T05:59:36;7.20;;;4.17;;
9188;SDS011;34313;50.780;6.084;2023-07-20T06:02:03;7.00;;;4.13;;
9188;SDS011;34313;50.780;6.084;2023-07-20T06:04:29;8.47;;;4.90;;
9188;SDS011;34313;50.780;6.084;2023-07-20T06:06:54;11.47;;;5.97;;
9188;SDS011;34313;50.780;6.084;2023-07-20T06:09:19;6.57;;;4.80;;
9188;SDS011;34313;50.780;6.084;2023-07-20T06:11:44;9.27;;;4.90;;
9188;SDS011;34313;50.780;6.084;2023-07-20T06:14:10;10.37;;;5.50;;
9188;SDS011;34313;50.780;6.084;2023-07-20T06:16:35;9.00;;;5.50;;
9188;SDS011;34313;50.780;6.084;2023-07-20T06:19:01;10.67;;;5.60;;
9188;SDS011;34313;50.780;6.084;2023-07-20T06:21:26;14.00;;;6.87;;
9188;SDS011;34313;50.780;6.084;2023-07-20T06:23:51;9.13;;;6.90;;
9188;SDS011;34313;50.780;6.084;2023-07-20T06:26:17;9.13;;;6.40;;
9188;SDS011;34313;50.780;6.084;2023-07-20T06:28:42;13.53;;;6.20;;
9188;SDS011;34313;50.780;6.084;2023-07-20T06:31:07;12.33;;;6.20;;
9188;SDS011;34313;50.780;6.084;2023-07-20T06:33:33;9.63;;;5.40;;
9188;SDS011;34313;50.780;6.084;2023-07-20T06:35:59;6.83;;;5.53;;
9188;SDS011;34313;50.780;6.084;2023-07-20T06:38:25;7.50;;;5.27;;
9188;SDS011;34313;50.780;6.084;2023-07-20T06:40:50;9.13;;;5.57;;
9188;SDS011;34313;50.780;6.084;2023-07-20T06:43:16;5.73;;;4.47;;
9188;SDS011;34313;50.780;6.084;2023-07-20T06:45:42;18.27;;;6.40;;
9188;SDS011;34313;50.780;6.084;2023-07-20T06:48:07;9.33;;;5.00;;
9188;SDS011;34313;50.780;6.084;2023-07-20T06:50:33;10.70;;;4.70;;
9188;SDS011;34313;50.780;6.084;2023-07-20T06:52:59;10.67;;;5.50;;
9188;SDS011;34313;50.780;6.084;2023-07-20T06:55:25;10.57;;;7.80;;
9188;SDS011;34313;50.780;6.084;2023-07-20T06:57:51;6.70;;;5.57;;
9188;SDS011;34313;50.780;6.084;2023-07-20T07:00:16;7.10;;;5.40;;
9188;SDS011;34313;50.780;6.084;2023-07-20T07:02:42;15.37;;;9.50;;
9188;SDS011;34313;50.780;6.084;2023-07-20T07:05:07;6.77;;;6.03;;
9188;SDS011;34313;50.780;6.084;2023-07-20T07:07:33;6.50;;;5.00;;
9188;SDS011;34313;50.780;6.084;2023-07-20T07:10:00;8.83;;;5.27;;
9188;SDS011;34313;50.780;6.084;2023-07-20T07:12:25;10.47;;;5.70;;
9188;SDS011;34313;50.780;6.084;2023-07-20T07:14:51;11.43;;;4.10;;
9188;SDS011;34313;50.780;6.084;2023-07-20T07:17:17;7.50;;;4.80;;
9188;SDS011;34313;50.780;6.084;2023-07-20T07:19:42;9.50;;;3.60;;
9188;SDS011;34313;50.780;6.084;2023-07-20T07:22:09;4.80;;;2.97;;
9188;SDS011;34313;50.780;6.084;2023-07-20T07:24:35;5.47;;;3.88;;
9188;SDS011;34313;50.780;6.084;2023-07-20T07:27:01;5.07;;;4.28;;
9188;SDS011;34313;50.780;6.084;2023-07-20T07:29:26;6.50;;;4.47;;
9188;SDS011;34313;50.780;6.084;2023-07-20T07:31:51;6.70;;;4.50;;
9188;SDS011;34313;50.780;6.084;2023-07-20T07:34:17;6.20;;;3.97;;
9188;SDS011;34313;50.780;6.084;2023-07-20T07:36:42;7.83;;;4.00;;
9188;SDS011;34313;50.780;6.084;2023-07-20T07:39:08;9.03;;;5.00;;
9188;SDS011;34313;50.780;6.084;2023-07-20T07:41:34;6.00;;;3.80;;
9188;SDS011;34313;50.780;6.084;2023-07-20T07:43:59;6.10;;;3.90;;
9188;SDS011;34313;50.780;6.084;2023-07-20T07:46:25;8.93;;;3.72;;
9188;SDS011;34313;50.780;6.084;2023-07-20T07:48:50;3.80;;;3.30;;
9188;SDS011;34313;50.780;6.084;2023-07-20T07:51:15;6.00;;;3.47;;
9188;SDS011;34313;50.780;6.084;2023-07-20T07:53:41;2.80;;;1.85;;
9188;SDS011;34313;50.780;6.084;2023-07-20T07:56:07;2.00;;;1.75;;
9188;SDS011;34313;50.780;6.084;2023-07-20T07:58:33;1.92;;;1.83;;
9188;SDS011;34313;50.780;6.084;2023-07-20T08:00:59;2.80;;;2.33;;
9188;SDS011;34313;50.780;6.084;2023-07-20T08:03:24;2.72;;;2.20;;
9188;SDS011;34313;50.780;6.084;2023-07-20T08:05:49;5.03;;;2.58;;
9188;SDS011;34313;50.780;6.084;2023-07-20T08:08:15;3.08;;;2.28;;
9188;SDS011;34313;50.780;6.084;2023-07-20T08:10:40;3.58;;;2.78;;
9188;SDS011;34313;50.780;6.084;2023-07-20T08:13:05;1.90;;;1.58;;
9188;SDS011;34313;50.780;6.084;2023-07-20T08:15:31;3.58;;;2.00;;
9188;SDS011;34313;50.780;6.084;2023-07-20T08:17:56;4.40;;;2.20;;
9188;SDS011;34313;50.780;6.084;2023-07-20T08:20:21;12.32;;;2.92;;
9188;SDS011;34313;50.780;6.084;2023-07-20T08:22:51;2.20;;;1.77;;
9188;SDS011;34313;50.780;6.084;2023-07-20T08:25:18;2.45;;;1.80;;
9188;SDS011;34313;50.780;6.084;2023-07-20T08:27:43;2.17;;;1.30;;
9188;SDS011;34313;50.780;6.084;2023-07-20T08:30:11;1.90;;;1.40;;
9188;SDS011;34313;50.780;6.084;2023-07-20T08:32:36;2.92;;;1.67;;
9188;SDS011;34313;50.780;6.084;2023-07-20T08:35:01;2.90;;;1.50;;
9188;SDS011;34313;50.780;6.084;2023-07-20T08:37:27;2.75;;;2.08;;
9188;SDS011;34313;50.780;6.084;2023-07-20T08:39:52;5.68;;;2.92;;
9188;SDS011;34313;50.780;6.084;2023-07-20T08:42:17;8.35;;;3.45;;
9188;SDS011;34313;50.780;6.084;2023-07-20T08:44:43;6.10;;;3.30;;
9188;SDS011;34313;50.780;6.084;2023-07-20T08:47:12;5.20;;;2.40;;
9188;SDS011;34313;50.780;6.084;2023-07-20T08:49:40;4.40;;;2.03;;
9188;SDS011;34313;50.780;6.084;2023-07-20T08:52:06;4.60;;;2.47;;
9188;SDS011;34313;50.780;6.084;2023-07-20T08:54:32;3.03;;;2.40;;
9188;SDS011;34313;50.780;6.084;2023-07-20T08:57:02;4.45;;;2.40;;
9188;SDS011;34313;50.780;6.084;2023-07-20T08:59:29;4.38;;;2.72;;
9188;SDS011;34313;50.780;6.084;2023-07-20T09:01:59;2.45;;;1.95;;
9188;SDS011;34313;50.780;6.084;2023-07-20T09:04:25;6.55;;;2.25;;
9188;SDS011;34313;50.780;6.084;2023-07-20T09:06:51;4.15;;;2.50;;
9188;SDS011;34313;50.780;6.084;2023-07-20T09:09:16;2.75;;;2.30;;
9188;SDS011;34313;50.780;6.084;2023-07-20T09:11:42;2.92;;;2.30;;
9188;SDS011;34313;50.780;6.084;2023-07-20T09:14:08;3.47;;;2.00;;
9188;SDS011;34313;50.780;6.084;2023-07-20T09:16:48;4.03;;;1.90;;
9188;SDS011;34313;50.780;6.084;2023-07-20T09:19:15;1.75;;;1.30;;
9188;SDS011;34313;50.780;6.084;2023-07-20T09:21:43;3.83;;;1.55;;
9188;SDS011;34313;50.780;6.084;2023-07-20T09:24:10;2.45;;;1.45;;
9188;SDS011;34313;50.780;6.084;2023-07-20T09:26:40;2.47;;;1.80;;
9188;SDS011;34313;50.780;6.084;2023-07-20T09:29:07;2.22;;;1.40;;
9188;SDS011;34313;50.780;6.084;2023-07-20T09:31:34;3.33;;;1.83;;
9188;SDS011;34313;50.780;6.084;2023-07-20T09:33:59;2.83;;;2.10;;
9188;SDS011;34313;50.780;6.084;2023-07-20T09:36:28;2.20;;;1.80;;
9188;SDS011;34313;50.780;6.084;2023-07-20T09:38:54;3.28;;;1.73;;
9188;SDS011;34313;50.780;6.084;2023-07-20T09:41:21;2.10;;;1.50;;
9188;SDS011;34313;50.780;6.084;2023-07-20T09:43:46;2.60;;;1.95;;
9188;SDS011;34313;50.780;6.084;2023-07-20T09:46:12;2.55;;;1.50;;
9188;SDS011;34313;50.780;6.084;2023-07-20T09:48:42;2.67;;;1.50;;
9188;SDS011;34313;50.780;6.084;2023-07-20T09:51:16;1.92;;;1.80;;
9188;SDS011;34313;50.780;6.084;2023-07-20T09:53:43;2.22;;;1.88;;
9188;SDS011;34313;50.780;6.084;2023-07-20T09:56:09;5.45;;;1.80;;
9188;SDS011;34313;50.780;6.084;2023-07-20T09:58:37;4.00;;;2.00;;
9188;SDS011;34313;50.780;6.084;2023-07-20T10:01:03;5.23;;;1.80;;
9188;SDS011;34313;50.780;6.084;2023-07-20T10:03:32;3.57;;;1.60;;
9188;SDS011;34313;50.780;6.084;2023-07-20T10:06:01;3.30;;;1.57;;
9188;SDS011;34313;50.780;6.084;2023-07-20T10:08:30;3.20;;;2.00;;
9188;SDS011;34313;50.780;6.084;2023-07-20T10:10:59;3.30;;;1.97;;
9188;SDS011;34313;50.780;6.084;2023-07-20T10:13:27;3.57;;;1.80;;
9188;SDS011;34313;50.780;6.084;2023-07-20T10:15:54;5.47;;;2.00;;
9188;SDS011;34313;50.780;6.084;2023-07-20T10:18:29;4.17;;;1.90;;
9188;SDS011;34313;50.780;6.084;2023-07-20T10:20:59;2.43;;;1.63;;
9188;SDS011;34313;50.780;6.084;2023-07-20T10:23:26;3.00;;;1.70;;
9188;SDS011;34313;50.780;6.084;2023-07-20T10:25:53;3.30;;;1.80;;
9188;SDS011;34313;50.780;6.084;2023-07-20T10:28:19;3.40;;;2.03;;
9188;SDS011;34313;50.780;6.084;2023-07-20T10:30:45;3.60;;;2.00;;
9188;SDS011;34313;50.780;6.084;2023-07-20T10:33:11;6.80;;;2.27;;
9188;SDS011;34313;50.780;6.084;2023-07-20T10:35:56;5.43;;;2.90;;
9188;SDS011;34313;50.780;6.084;2023-07-20T10:38:38;2.67;;;2.30;;
9188;SDS011;34313;50.780;6.084;2023-07-20T10:41:04;2.33;;;1.60;;
9188;SDS011;34313;50.780;6.084;2023-07-20T10:43:44;3.50;;;2.40;;
9188;SDS011;34313;50.780;6.084;2023-07-20T10:46:10;4.03;;;3.37;;
9188;SDS011;34313;50.780;6.084;2023-07-20T10:48:58;2.63;;;2.13;;
9188;SDS011;34313;50.780;6.084;2023-07-20T10:51:30;3.70;;;2.03;;
9188;SDS011;34313;50.780;6.084;2023-07-20T10:54:03;2.93;;;1.90;;
9188;SDS011;34313;50.780;6.084;2023-07-20T10:56:33;3.30;;;1.83;;
9188;SDS011;34313;50.780;6.084;2023-07-20T10:58:59;1.80;;;1.70;;
9188;SDS011;34313;50.780;6.084;2023-07-20T11:01:29;3.63;;;1.60;;
9188;SDS011;34313;50.780;6.084;2023-07-20T11:03:57;3.93;;;1.80;;
9188;SDS011;34313;50.780;6.084;2023-07-20T11:09:03;1.70;;;1.60;;
9188;SDS011;34313;50.780;6.084;2023-07-20T11:11:30;2.93;;;1.70;;
9188;SDS011;34313;50.780;6.084;2023-07-20T11:13:59;2.50;;;2.07;;
9188;SDS011;34313;50.780;6.084;2023-07-20T11:17:10;4.00;;;2.33;;
9188;SDS011;34313;50.780;6.084;2023-07-20T11:19:24;4.30;;;2.37;;
9188;SDS011;34313;50.780;6.084;2023-07-20T11:21:52;3.43;;;2.07;;
9188;SDS011;34313;50.780;6.084;2023-07-20T11:24:18;3.77;;;2.13;;
9188;SDS011;34313;50.780;6.084;2023-07-20T11:26:44;2.30;;;1.90;;
9188;SDS011;34313;50.780;6.084;2023-07-20T11:29:13;2.20;;;1.70;;
9188;SDS011;34313;50.780;6.084;2023-07-20T11:31:39;2.73;;;1.70;;
9188;SDS011;34313;50.780;6.084;2023-07-20T11:34:07;5.07;;;2.13;;
9188;SDS011;34313;50.780;6.084;2023-07-20T11:36:36;2.80;;;1.67;;
9188;SDS011;34313;50.780;6.084;2023-07-20T11:39:02;2.50;;;1.70;;
9188;SDS011;34313;50.780;6.084;2023-07-20T11:41:29;3.63;;;1.50;;
9188;SDS011;34313;50.780;6.084;2023-07-20T11:43:55;3.10;;;1.50;;
9188;SDS011;34313;50.780;6.084;2023-07-20T11:46:22;3.27;;;1.50;;
9188;SDS011;34313;50.780;6.084;2023-07-20T11:48:47;3.90;;;1.97;;
9188;SDS011;34313;50.780;6.084;2023-07-20T11:51:16;2.23;;;1.10;;
9188;SDS011;34313;50.780;6.084;2023-07-20T11:53:45;2.53;;;1.67;;
9188;SDS011;34313;50.780;6.084;2023-07-20T11:56:11;3.53;;;2.00;;
9188;SDS011;34313;50.780;6.084;2023-07-20T11:58:41;3.30;;;1.43;;
9188;SDS011;34313;50.780;6.084;2023-07-20T12:01:08;3.57;;;1.57;;
9188;SDS011;34313;50.780;6.084;2023-07-20T12:03:34;2.47;;;1.60;;
9188;SDS011;34313;50.780;6.084;2023-07-20T12:06:06;3.67;;;1.60;;
9188;SDS011;34313;50.780;6.084;2023-07-20T12:08:33;2.43;;;1.40;;
9188;SDS011;34313;50.780;6.084;2023-07-20T12:10:58;1.90;;;1.50;;
9188;SDS011;34313;50.780;6.084;2023-07-20T12:13:26;2.90;;;1.50;;
9188;SDS011;34313;50.780;6.084;2023-07-20T12:16:06;2.50;;;2.27;;
9188;SDS011;34313;50.780;6.084;2023-07-20T12:18:34;2.63;;;1.27;;
9188;SDS011;34313;50.780;6.084;2023-07-20T12:21:00;5.47;;;1.30;;
9188;SDS011;34313;50.780;6.084;2023-07-20T12:23:26;2.93;;;1.57;;
9188;SDS011;34313;50.780;6.084;2023-07-20T12:25:51;1.33;;;1.23;;
9188;SDS011;34313;50.780;6.084;2023-07-20T12:28:19;2.83;;;2.20;;
9188;SDS011;34313;50.780;6.084;2023-07-20T12:30:45;2.93;;;2.10;;
9188;SDS011;34313;50.780;6.084;2023-07-20T12:33:11;2.00;;;1.70;;
9188;SDS011;34313;50.780;6.084;2023-07-20T12:35:40;2.70;;;1.53;;
9188;SDS011;34313;50.780;6.084;2023-07-20T12:38:06;1.77;;;1.20;;
9188;SDS011;34313;50.780;6.084;2023-07-20T12:40:31;1.30;;;1.20;;
9188;SDS011;34313;50.780;6.084;2023-07-20T12:42:57;3.00;;;1.20;;
9188;SDS011;34313;50.780;6.084;2023-07-20T12:45:22;2.50;;;1.40;;
9188;SDS011;34313;50.780;6.084;2023-07-20T12:47:48;2.30;;;1.40;;
9188;SDS011;34313;50.780;6.084;2023-07-20T12:50:19;1.50;;;1.40;;
9188;SDS011;34313;50.780;6.084;2023-07-20T12:52:44;1.73;;;1.00;;
9188;SDS011;34313;50.780;6.084;2023-07-20T12:55:12;1.90;;;1.40;;
9188;SDS011;34313;50.780;6.084;2023-07-20T12:57:38;1.80;;;1.17;;
9188;SDS011;34313;50.780;6.084;2023-07-20T13:00:06;2.23;;;2.03;;
9188;SDS011;34313;50.780;6.084;2023-07-20T13:02:34;1.80;;;1.60;;
9188;SDS011;34313;50.780;6.084;2023-07-20T13:05:01;2.10;;;1.30;;
9188;SDS011;34313;50.780;6.084;2023-07-20T13:07:31;1.93;;;1.33;;
9188;SDS011;34313;50.780;6.084;2023-07-20T13:09:58;1.80;;;1.40;;
9188;SDS011;34313;50.780;6.084;2023-07-20T13:12:25;2.20;;;1.50;;
9188;SDS011;34313;50.780;6.084;2023-07-20T13:14:54;1.33;;;0.90;;
9188;SDS011;34313;50.780;6.084;2023-07-20T13:17:21;1.90;;;1.17;;
9188;SDS011;34313;50.780;6.084;2023-07-20T13:19:47;1.53;;;1.43;;
9188;SDS011;34313;50.780;6.084;2023-07-20T13:22:12;3.00;;;1.43;;
9188;SDS011;34313;50.780;6.084;2023-07-20T13:24:40;5.13;;;2.47;;
9188;SDS011;34313;50.780;6.084;2023-07-20T13:27:06;1.77;;;1.67;;
9188;SDS011;34313;50.780;6.084;2023-07-20T13:29:34;1.67;;;1.20;;
9188;SDS011;34313;50.780;6.084;2023-07-20T13:32:00;1.77;;;1.20;;
9188;SDS011;34313;50.780;6.084;2023-07-20T13:34:29;0.90;;;0.90;;
9188;SDS011;34313;50.780;6.084;2023-07-20T13:36:54;2.07;;;1.10;;
9188;SDS011;34313;50.780;6.084;2023-07-20T13:39:19;2.60;;;1.00;;
9188;SDS011;34313;50.780;6.084;2023-07-20T13:41:45;2.03;;;1.60;;
9188;SDS011;34313;50.780;6.084;2023-07-20T13:44:10;1.33;;;1.03;;
9188;SDS011;34313;50.780;6.084;2023-07-20T13:46:35;1.70;;;1.60;;
9188;SDS011;34313;50.780;6.084;2023-07-20T13:49:01;2.17;;;1.23;;
9188;SDS011;34313;50.780;6.084;2023-07-20T13:51:26;2.00;;;1.23;;
9188;SDS011;34313;50.780;6.084;2023-07-20T13:53:52;5.53;;;1.63;;
9188;SDS011;34313;50.780;6.084;2023-07-20T13:56:17;1.40;;;1.30;;
9188;SDS011;34313;50.780;6.084;2023-07-20T13:58:46;1.37;;;1.10;;
9188;SDS011;34313;50.780;6.084;2023-07-20T14:01:12;2.00;;;1.50;;
9188;SDS011;34313;50.780;6.084;2023-07-20T14:03:37;1.93;;;1.37;;
9188;SDS011;34313;50.780;6.084;2023-07-20T14:06:02;3.40;;;1.40;;
9188;SDS011;34313;50.780;6.084;2023-07-20T14:08:28;4.07;;;1.37;;
9188;SDS011;34313;50.780;6.084;2023-07-20T14:10:55;1.40;;;1.10;;
9188;SDS011;34313;50.780;6.084;2023-07-20T14:13:23;1.40;;;1.30;;
9188;SDS011;34313;50.780;6.084;2023-07-20T14:15:48;1.23;;;1.13;;
9188;SDS011;34313;50.780;6.084;2023-07-20T14:18:15;3.40;;;1.80;;
9188;SDS011;34313;50.780;6.084;2023-07-20T14:20:40;1.27;;;1.17;;
9188;SDS011;34313;50.780;6.084;2023-07-20T14:23:06;1.93;;;1.20;;
9188;SDS011;34313;50.780;6.084;2023-07-20T14:25:31;2.10;;;1.20;;
9188;SDS011;34313;50.780;6.084;2023-07-20T14:27:58;2.27;;;1.97;;
9188;SDS011;34313;50.780;6.084;2023-07-20T14:30:24;5.60;;;2.43;;
9188;SDS011;34313;50.780;6.084;2023-07-20T14:32:49;1.27;;;1.17;;
9188;SDS011;34313;50.780;6.084;2023-07-20T14:35:14;1.63;;;1.20;;
9188;SDS011;34313;50.780;6.084;2023-07-20T14:37:40;1.80;;;0.90;;
9188;SDS011;34313;50.780;6.084;2023-07-20T14:40:05;1.13;;;1.00;;
9188;SDS011;34313;50.780;6.084;2023-07-20T14:42:33;2.20;;;1.20;;
9188;SDS011;34313;50.780;6.084;2023-07-20T14:44:59;1.23;;;1.10;;
9188;SDS011;34313;50.780;6.084;2023-07-20T14:47:24;1.60;;;1.13;;
9188;SDS011;34313;50.780;6.084;2023-07-20T14:49:50;1.40;;;1.30;;
9188;SDS011;34313;50.780;6.084;2023-07-20T14:52:15;1.70;;;1.20;;
9188;SDS011;34313;50.780;6.084;2023-07-20T14:54:49;5.20;;;1.43;;
9188;SDS011;34313;50.780;6.084;2023-07-20T14:57:15;2.10;;;1.07;;
9188;SDS011;34313;50.780;6.084;2023-07-20T14:59:41;2.50;;;1.37;;
9188;SDS011;34313;50.780;6.084;2023-07-20T15:02:09;3.73;;;2.67;;
9188;SDS011;34313;50.780;6.084;2023-07-20T15:04:34;1.40;;;1.30;;
9188;SDS011;34313;50.780;6.084;2023-07-20T15:07:00;2.20;;;0.83;;
9188;SDS011;34313;50.780;6.084;2023-07-20T15:09:26;5.90;;;3.83;;
9188;SDS011;34313;50.780;6.084;2023-07-20T15:11:51;2.30;;;2.07;;